Time;durP1;ratioP1;P1;durP2;ratioP2;P2;SDS_P1;SDS_P2;PMS_P1;PMS_P2;Temp;Humidity;BMP_temperature;BMP_pressure;BME280_temperature;BME280_humidity;BME280_pressure;Samples;Min_cycle;Max_cycle;Signal;HPM_P1;HPM_P2
2021/03/03 00:02:25;;;;;;;24.52;15.35;;;4.30;99.90;;;;;;10537410;28;20077;-73
2021/03/03 00:07:26;;;;;;;26.67;15.27;;;4.30;99.90;;;;;;10568193;28;20083;-73
2021/03/03 00:12:29;;;;;;;28.13;15.75;;;4.40;99.90;;;;;;10569111;28;20142;-73
2021/03/03 00:17:30;;;;;;;26.92;14.95;;;4.30;99.90;;;;;;10569522;28;20127;-73
2021/03/03 00:22:32;;;;;;;21.55;13.70;;;4.20;99.90;;;;;;10570401;28;20044;-72
2021/03/03 00:27:33;;;;;;;30.88;15.95;;;4.10;99.90;;;;;;10551647;28;20464;-73
2021/03/03 00:32:47;;;;;;;27.83;16.83;;;4.10;99.90;;;;;;10569967;28;20047;-73
2021/03/03 00:37:49;;;;;;;25.08;15.05;;;4.00;99.90;;;;;;10569314;28;20044;-73
2021/03/03 00:42:50;;;;;;;27.13;16.20;;;3.90;99.90;;;;;;10568701;27;20047;-73
2021/03/03 00:47:52;;;;;;;24.23;15.93;;;3.90;99.90;;;;;;10568213;28;20188;-73
2021/03/03 00:52:54;;;;;;;23.05;14.52;;;3.80;99.90;;;;;;10549092;28;20599;-73
2021/03/03 00:57:55;;;;;;;29.45;15.40;;;3.80;99.90;;;;;;10550399;28;20138;-73
2021/03/03 01:03:08;;;;;;;24.15;14.68;;;3.80;99.90;;;;;;10567658;28;20059;-73
2021/03/03 01:08:10;;;;;;;24.70;15.77;;;3.80;99.90;;;;;;10567552;28;20131;-73
2021/03/03 01:13:11;;;;;;;27.02;15.57;;;3.80;99.90;;;;;;10567151;28;20134;-73
2021/03/03 01:18:13;;;;;;;32.45;18.83;;;3.80;99.90;;;;;;10570827;28;20499;-73
2021/03/03 01:23:14;;;;;;;28.45;18.33;;;3.80;99.90;;;;;;10574909;28;20044;-73
2021/03/03 01:28:16;;;;;;;24.67;16.75;;;3.70;99.90;;;;;;10576196;28;20079;-73
2021/03/03 01:33:30;;;;;;;26.52;15.20;;;3.70;99.90;;;;;;10576077;28;20043;-73
2021/03/03 01:38:32;;;;;;;28.10;16.63;;;3.70;99.90;;;;;;10575379;28;20058;-73
2021/03/03 01:43:33;;;;;;;27.33;15.73;;;3.60;99.90;;;;;;10576748;28;20500;-73
2021/03/03 01:48:36;;;;;;;27.20;15.90;;;3.60;99.90;;;;;;10558280;28;20487;-73
2021/03/03 01:53:37;;;;;;;27.35;17.92;;;3.50;99.90;;;;;;10575968;28;20570;-74
2021/03/03 01:58:39;;;;;;;25.25;16.13;;;3.50;99.90;;;;;;10557688;28;20479;-74
2021/03/03 02:03:50;;;;;;;28.33;16.98;;;3.40;99.90;;;;;;10556951;28;20462;-73
2021/03/03 02:09:01;;;;;;;28.98;16.75;;;3.40;99.90;;;;;;10575086;28;20062;-74
2021/03/03 02:14:06;;;;;;;25.13;15.70;;;3.30;99.90;;;;;;10556546;28;20162;-74
2021/03/03 02:19:14;;;;;;;26.05;15.85;;;3.20;99.90;;;;;;10574420;28;20143;-73
2021/03/03 02:24:21;;;;;;;25.42;15.50;;;3.30;99.90;;;;;;10556482;28;20094;-73
2021/03/03 02:29:28;;;;;;;31.33;16.27;;;3.20;99.90;;;;;;10573189;28;20051;-73
2021/03/03 02:34:30;;;;;;;25.60;16.52;;;3.10;99.90;;;;;;10574016;28;20123;-73
2021/03/03 02:39:31;;;;;;;26.00;16.00;;;3.10;99.90;;;;;;10555276;28;20139;-73
2021/03/03 02:44:34;;;;;;;23.00;15.18;;;3.10;99.90;;;;;;10574136;28;20134;-73
2021/03/03 02:49:36;;;;;;;29.65;16.10;;;3.20;99.90;;;;;;10572940;28;20233;-73
2021/03/03 02:54:37;;;;;;;29.58;16.30;;;3.20;99.90;;;;;;10554313;28;20051;-73
2021/03/03 02:59:45;;;;;;;26.52;17.25;;;3.10;99.90;;;;;;10573357;28;20084;-73
2021/03/03 03:04:48;;;;;;;24.95;16.05;;;3.00;99.90;;;;;;10580829;28;20071;-74
2021/03/03 03:09:50;;;;;;;27.42;16.80;;;2.90;99.90;;;;;;10580896;28;20074;-73
2021/03/03 03:14:52;;;;;;;26.42;16.23;;;3.00;99.90;;;;;;10579300;28;20418;-73
2021/03/03 03:19:56;;;;;;;25.65;14.65;;;3.10;99.90;;;;;;10580477;28;20063;-73
2021/03/03 03:24:58;;;;;;;25.55;16.20;;;3.20;99.90;;;;;;10580831;28;20067;-73
2021/03/03 03:30:01;;;;;;;25.63;16.23;;;3.10;99.90;;;;;;10581037;28;20067;-73
2021/03/03 03:35:03;;;;;;;27.92;16.42;;;3.00;99.90;;;;;;10580647;28;20055;-73
2021/03/03 03:40:05;;;;;;;25.40;15.30;;;3.00;99.90;;;;;;10562032;28;20126;-73
2021/03/03 03:45:07;;;;;;;32.20;16.88;;;3.00;99.90;;;;;;10562353;28;20556;-73
2021/03/03 03:50:10;;;;;;;29.02;15.75;;;3.00;99.90;;;;;;10580295;28;20082;-72
2021/03/03 03:55:12;;;;;;;24.83;14.77;;;3.10;99.90;;;;;;10579649;28;20101;-73
2021/03/03 04:00:16;;;;;;;26.05;15.70;;;3.00;99.90;;;;;;10579629;28;20051;-73
2021/03/03 04:05:21;;;;;;;25.10;15.27;;;3.10;99.90;;;;;;10574866;28;20073;-73
2021/03/03 04:10:27;;;;;;;26.92;15.70;;;3.00;99.90;;;;;;10573480;28;20047;-73
2021/03/03 04:15:28;;;;;;;24.40;15.52;;;2.80;99.90;;;;;;10571636;28;20536;-73
2021/03/03 04:20:30;;;;;;;33.67;19.60;;;2.80;99.90;;;;;;10572028;28;20503;-73
2021/03/03 04:25:31;;;;;;;27.45;16.75;;;2.80;99.90;;;;;;10571614;28;20051;-73
2021/03/03 04:30:34;;;;;;;31.60;20.88;;;2.90;99.90;;;;;;10553698;28;20079;-72
2021/03/03 04:35:43;;;;;;;31.02;18.15;;;2.80;99.90;;;;;;10571652;28;20062;-73
2021/03/03 04:40:44;;;;;;;29.15;17.48;;;2.90;99.90;;;;;;10571350;28;20469;-72
2021/03/03 04:45:47;;;;;;;27.10;15.93;;;2.80;99.90;;;;;;10571361;28;20126;-73
2021/03/03 04:50:48;;;;;;;29.73;16.35;;;2.80;99.90;;;;;;10571580;28;20105;-73
2021/03/03 04:55:50;;;;;;;28.60;17.33;;;2.80;99.90;;;;;;10577725;28;20562;-73
2021/03/03 05:00:51;;;;;;;27.20;16.50;;;2.90;99.90;;;;;;10579857;28;20074;-73
2021/03/03 05:06:07;;;;;;;28.95;17.50;;;2.80;99.90;;;;;;10549225;28;20063;-73
2021/03/03 05:11:08;;;;;;;29.13;17.15;;;2.70;99.90;;;;;;10578801;28;20052;-73
2021/03/03 05:16:10;;;;;;;30.83;18.50;;;2.70;99.90;;;;;;10579577;28;20051;-72
2021/03/03 05:21:12;;;;;;;30.52;17.75;;;2.70;99.90;;;;;;10579011;28;20109;-72
2021/03/03 05:26:14;;;;;;;29.77;17.92;;;2.70;99.90;;;;;;10578516;28;20537;-73
2021/03/03 05:31:15;;;;;;;28.08;17.73;;;2.70;99.90;;;;;;10578565;28;20051;-73
2021/03/03 05:36:32;;;;;;;33.83;20.77;;;2.80;99.90;;;;;;10578953;28;20051;-73
2021/03/03 05:41:34;;;;;;;34.10;18.92;;;2.80;99.90;;;;;;10578371;28;20073;-73
2021/03/03 05:46:37;;;;;;;27.17;16.08;;;2.70;99.90;;;;;;10578177;28;20129;-73
2021/03/03 05:51:42;;;;;;;30.20;17.08;;;2.70;99.90;;;;;;10577805;28;20079;-72
2021/03/03 05:56:45;;;;;;;30.85;17.45;;;2.70;99.90;;;;;;10577127;28;20047;-72
2021/03/03 06:01:49;;;;;;;28.77;17.35;;;2.70;99.90;;;;;;10577497;28;20123;-73
2021/03/03 06:06:56;;;;;;;26.23;16.90;;;2.70;99.90;;;;;;10577041;28;20048;-73
2021/03/03 06:11:58;;;;;;;29.08;17.42;;;2.70;99.90;;;;;;10575936;28;20333;-72
2021/03/03 06:16:59;;;;;;;33.83;18.25;;;2.70;99.90;;;;;;10576444;28;20134;-73
2021/03/03 06:22:25;;;;;;;39.17;24.10;;;2.70;99.90;;;;;;10576355;28;20051;-72
2021/03/03 06:27:38;;;;;;;32.75;19.70;;;2.70;99.90;;;;;;10575755;28;20058;-73
2021/03/03 06:33:23;;;;;;;31.88;18.55;;;2.80;99.90;;;;;;10576186;28;20467;-73
2021/03/03 06:38:29;;;;;;;35.90;24.20;;;2.90;99.90;;;;;;10362596;28;20368;-72
2021/03/03 06:43:31;;;;;;;33.90;22.65;;;2.90;99.90;;;;;;10535204;28;20131;-73
2021/03/03 06:48:38;;;;;;;33.25;20.35;;;3.00;99.90;;;;;;10557573;28;20088;-73
2021/03/03 06:53:39;;;;;;;34.92;19.95;;;3.00;99.90;;;;;;10574950;28;20048;-72
2021/03/03 06:58:40;;;;;;;26.85;17.75;;;3.20;99.90;;;;;;10574745;28;20505;-72
2021/03/03 07:03:42;;;;;;;27.50;16.92;;;3.30;99.90;;;;;;10574945;28;20311;-73
2021/03/03 07:08:58;;;;;;;36.03;19.98;;;3.40;99.90;;;;;;10574948;28;20104;-72
2021/03/03 07:14:12;;;;;;;26.70;17.42;;;3.60;99.90;;;;;;10573333;28;20124;-73
2021/03/03 07:19:19;;;;;;;27.20;16.95;;;3.60;99.90;;;;;;10573451;28;20529;-72
2021/03/03 07:24:22;;;;;;;30.80;19.17;;;3.70;99.90;;;;;;10573618;28;20175;-73
2021/03/03 07:29:25;;;;;;;28.58;18.55;;;3.80;99.90;;;;;;10538994;28;20059;-73
2021/03/03 07:34:27;;;;;;;27.88;18.15;;;4.00;99.90;;;;;;10573529;28;20075;-72
2021/03/03 07:39:33;;;;;;;26.75;17.10;;;4.40;99.90;;;;;;10573587;28;20083;-72
2021/03/03 07:44:39;;;;;;;36.83;19.77;;;4.50;99.90;;;;;;10573309;28;20100;-72
2021/03/03 07:49:44;;;;;;;28.35;17.52;;;4.60;99.90;;;;;;10555475;28;20109;-73
2021/03/03 07:54:45;;;;;;;30.70;17.95;;;4.80;99.90;;;;;;10571411;28;20127;-73
2021/03/03 07:59:47;;;;;;;31.42;18.17;;;5.00;99.90;;;;;;10572014;28;20043;-72
2021/03/03 08:05:01;;;;;;;28.75;18.45;;;5.30;99.90;;;;;;10572196;28;20055;-73
2021/03/03 08:10:14;;;;;;;29.83;18.33;;;5.40;99.90;;;;;;10553958;28;20093;-73
2021/03/03 08:15:33;;;;;;;29.52;18.92;;;5.50;99.90;;;;;;10572265;28;20086;-73
2021/03/03 08:20:35;;;;;;;34.53;22.48;;;5.60;99.90;;;;;;10571594;28;20048;-72
2021/03/03 08:25:52;;;;;;;35.25;24.35;;;5.40;99.90;;;;;;10571764;28;20458;-73
2021/03/03 08:31:10;;;;;;;34.08;21.55;;;5.50;99.90;;;;;;10570843;28;20051;-72
2021/03/03 08:36:17;;;;;;;31.38;20.52;;;5.50;99.90;;;;;;10571069;28;20429;-72
2021/03/03 08:41:18;;;;;;;31.88;20.75;;;5.60;99.90;;;;;;10571092;28;20113;-73
2021/03/03 08:46:20;;;;;;;28.30;19.30;;;6.00;99.90;;;;;;10553242;28;20043;-73
2021/03/03 08:51:28;;;;;;;30.90;19.77;;;6.20;99.90;;;;;;10570580;28;20313;-72
2021/03/03 08:56:42;;;;;;;27.65;17.73;;;6.40;99.90;;;;;;10569744;28;20090;-73
2021/03/03 09:01:57;;;;;;;27.75;18.52;;;6.30;99.90;;;;;;10571045;28;20636;-72
2021/03/03 09:07:03;;;;;;;24.30;18.20;;;6.40;99.90;;;;;;10571427;28;20056;-72
2021/03/03 09:12:06;;;;;;;31.10;18.27;;;6.30;99.90;;;;;;10570117;28;20051;-72
2021/03/03 09:17:13;;;;;;;26.08;17.02;;;6.70;99.90;;;;;;10569985;28;20063;-73
2021/03/03 09:22:21;;;;;;;29.85;17.58;;;6.90;99.90;;;;;;10570707;28;20055;-73
2021/03/03 09:27:24;;;;;;;26.17;17.20;;;7.00;99.90;;;;;;10570036;28;20082;-73
2021/03/03 09:32:25;;;;;;;27.80;17.08;;;7.30;99.90;;;;;;10569928;28;20040;-73
2021/03/03 09:37:38;;;;;;;30.33;18.13;;;7.70;99.90;;;;;;10569817;28;20050;-73
2021/03/03 09:42:48;;;;;;;28.42;18.58;;;7.50;99.90;;;;;;10577856;28;20475;-73
2021/03/03 09:47:50;;;;;;;25.92;18.15;;;7.60;99.90;;;;;;10577355;28;20044;-73
2021/03/03 09:52:54;;;;;;;24.83;18.75;;;7.80;99.90;;;;;;10577571;28;20052;-73
2021/03/03 09:57:59;;;;;;;27.23;18.27;;;7.80;99.90;;;;;;10577375;28;20461;-73
2021/03/03 10:03:13;;;;;;;27.58;18.17;;;8.10;99.90;;;;;;10577216;28;20082;-73
2021/03/03 10:08:15;;;;;;;29.17;19.20;;;8.20;99.90;;;;;;10558630;28;20128;-73
2021/03/03 10:13:24;;;;;;;30.08;19.52;;;8.70;99.90;;;;;;10576257;28;20576;-73
2021/03/03 10:18:29;;;;;;;28.52;19.42;;;8.60;99.90;;;;;;10576192;28;20043;-73
2021/03/03 10:23:34;;;;;;;28.15;19.23;;;8.70;99.90;;;;;;10557710;28;20082;-73
2021/03/03 10:28:37;;;;;;;30.42;18.88;;;9.00;99.90;;;;;;10576583;28;20051;-73
2021/03/03 10:33:42;;;;;;;25.40;18.85;;;9.10;99.90;;;;;;10558329;28;20403;-73
2021/03/03 10:38:53;;;;;;;30.38;19.08;;;9.10;99.90;;;;;;10557374;28;20129;-72
2021/03/03 10:43:55;;;;;;;28.40;17.67;;;9.30;99.90;;;;;;10575180;28;20055;-73
2021/03/03 10:49:13;;;;;;;27.60;18.98;;;9.40;99.90;;;;;;10575111;28;20126;-73
2021/03/03 10:54:32;;;;;;;25.35;17.20;;;9.70;99.90;;;;;;10574433;28;20047;-73
2021/03/03 10:59:36;;;;;;;26.90;18.52;;;10.00;99.90;;;;;;10575125;28;20047;-73
2021/03/03 11:04:39;;;;;;;30.13;18.20;;;10.20;99.90;;;;;;10574894;28;20047;-72
2021/03/03 11:09:41;;;;;;;29.10;18.80;;;10.20;99.90;;;;;;10574022;28;20148;-72
2021/03/03 11:14:42;;;;;;;32.75;19.27;;;10.30;99.90;;;;;;10556860;28;20508;-73
2021/03/03 11:19:43;;;;;;;27.85;18.30;;;10.40;99.90;;;;;;10573493;28;20565;-72
2021/03/03 11:24:45;;;;;;;30.60;18.25;;;10.60;99.90;;;;;;10555181;28;20043;-72
2021/03/03 11:29:46;;;;;;;31.80;19.65;;;10.80;99.90;;;;;;10573087;28;20079;-73
2021/03/03 11:34:50;;;;;;;28.13;19.33;;;10.90;99.90;;;;;;10573536;28;20047;-72
2021/03/03 11:39:54;;;;;;;27.08;18.35;;;11.20;99.90;;;;;;10573039;28;20040;-72
2021/03/03 11:44:55;;;;;;;28.27;18.85;;;11.50;99.90;;;;;;10572748;28;20105;-72
2021/03/03 11:49:56;;;;;;;28.75;18.98;;;11.70;99.90;;;;;;10572610;28;20123;-72
2021/03/03 11:54:58;;;;;;;32.17;18.70;;;11.90;99.90;;;;;;10554246;28;20503;-73
2021/03/03 11:59:59;;;;;;;27.40;19.23;;;12.20;99.30;;;;;;10554354;28;20087;-72
2021/03/03 12:05:01;;;;;;;30.35;18.95;;;12.40;96.80;;;;;;10573143;28;20473;-72
2021/03/03 12:10:05;;;;;;;33.90;19.50;;;12.60;96.20;;;;;;10572520;28;20109;-73
2021/03/03 12:15:08;;;;;;;32.65;19.35;;;13.00;94.90;;;;;;10572071;28;20112;-73
2021/03/03 12:20:10;;;;;;;32.30;18.85;;;13.20;93.10;;;;;;10571441;28;20059;-73
2021/03/03 12:25:12;;;;;;;32.63;18.75;;;13.30;90.20;;;;;;10553292;28;20100;-73
2021/03/03 12:30:14;;;;;;;31.75;18.30;;;13.30;89.30;;;;;;10572243;28;20118;-73
2021/03/03 12:35:16;;;;;;;25.50;17.10;;;13.40;87.30;;;;;;10571092;28;20557;-73
2021/03/03 12:40:17;;;;;;;29.05;17.95;;;13.60;85.80;;;;;;10570978;28;20108;-72
2021/03/03 12:45:19;;;;;;;27.27;16.80;;;13.80;85.70;;;;;;10552114;28;20094;-73
2021/03/03 12:50:21;;;;;;;28.52;17.58;;;14.10;83.90;;;;;;10570998;28;20118;-73
2021/03/03 12:55:26;;;;;;;28.60;16.83;;;14.20;83.90;;;;;;10570757;28;20055;-73
2021/03/03 13:00:28;;;;;;;31.35;18.33;;;14.30;81.20;;;;;;10571307;28;20062;-73
2021/03/03 13:05:30;;;;;;;26.58;16.58;;;14.40;82.20;;;;;;10570989;28;20489;-73
2021/03/03 13:10:32;;;;;;;30.23;18.08;;;14.50;80.00;;;;;;10570449;28;20047;-72
2021/03/03 13:15:33;;;;;;;28.20;17.98;;;14.80;81.00;;;;;;10575340;28;20410;-73
2021/03/03 13:20:35;;;;;;;27.88;17.02;;;15.00;80.80;;;;;;10578051;28;20063;-73
2021/03/03 13:25:37;;;;;;;28.10;17.02;;;15.20;79.80;;;;;;10579052;28;20083;-73
2021/03/03 13:30:39;;;;;;;29.23;16.77;;;15.40;78.40;;;;;;10577938;28;20578;-73
2021/03/03 13:35:41;;;;;;;28.42;16.67;;;15.60;76.70;;;;;;10578431;28;20075;-73
2021/03/03 13:40:44;;;;;;;34.83;17.40;;;15.70;75.60;;;;;;10578342;28;20043;-73
2021/03/03 13:45:46;;;;;;;28.40;16.83;;;15.80;73.30;;;;;;10577939;28;20075;-73
2021/03/03 13:50:49;;;;;;;30.63;17.63;;;15.90;73.70;;;;;;10577895;28;20131;-72
2021/03/03 13:55:50;;;;;;;25.95;16.42;;;15.90;72.10;;;;;;10576613;28;20083;-73
2021/03/03 14:00:52;;;;;;;29.75;16.20;;;16.00;71.00;;;;;;10576852;28;20090;-73
2021/03/03 14:05:53;;;;;;;30.00;15.85;;;16.20;70.30;;;;;;10576480;28;20074;-73
2021/03/03 14:10:55;;;;;;;28.92;16.42;;;16.30;70.00;;;;;;10576881;28;20568;-73
2021/03/03 14:15:56;;;;;;;25.08;15.57;;;16.50;67.80;;;;;;10576906;28;20083;-73
2021/03/03 14:20:58;;;;;;;28.95;15.48;;;16.50;67.50;;;;;;10576483;28;20051;-73
2021/03/03 14:25:59;;;;;;;30.60;15.68;;;16.70;67.90;;;;;;10574930;27;20048;-73
2021/03/03 14:31:01;;;;;;;29.73;15.85;;;16.80;67.20;;;;;;10599892;27;20087;-73
2021/03/03 14:36:03;;;;;;;28.15;15.75;;;16.80;66.10;;;;;;10550859;28;20044;-70
2021/03/03 14:41:04;;;;;;;26.15;16.17;;;16.80;66.80;;;;;;10571467;28;20043;-69
2021/03/03 14:46:06;;;;;;;28.40;16.05;;;16.90;67.00;;;;;;10554869;28;20789;-70
2021/03/03 14:51:07;;;;;;;28.42;15.55;;;16.90;66.80;;;;;;10574138;28;20541;-69
2021/03/03 14:56:09;;;;;;;28.65;15.48;;;17.10;66.60;;;;;;10573569;28;20083;-69
2021/03/03 15:01:11;;;;;;;27.35;15.30;;;17.20;66.00;;;;;;10574082;28;20069;-69
2021/03/03 15:06:13;;;;;;;26.33;15.07;;;17.20;64.60;;;;;;10573666;28;20055;-69
2021/03/03 15:11:14;;;;;;;25.67;14.32;;;17.20;65.00;;;;;;10572802;28;20059;-69
2021/03/03 15:16:15;;;;;;;28.33;15.48;;;17.30;65.50;;;;;;10555575;28;20039;-69
2021/03/03 15:21:17;;;;;;;27.08;15.27;;;17.30;64.40;;;;;;10573981;28;20541;-69
2021/03/03 15:26:19;;;;;;;29.52;15.45;;;17.30;63.50;;;;;;10572800;28;20079;-69
2021/03/03 15:31:20;;;;;;;27.13;14.00;;;17.30;63.70;;;;;;10573050;28;20089;-69
2021/03/03 15:36:22;;;;;;;30.45;13.57;;;17.20;64.00;;;;;;10572522;28;20134;-69
2021/03/03 15:41:23;;;;;;;24.75;14.35;;;17.30;63.80;;;;;;10572502;28;20105;-70
2021/03/03 15:46:25;;;;;;;23.80;14.82;;;17.10;65.60;;;;;;10554783;28;20127;-69
2021/03/03 15:51:27;;;;;;;27.75;15.45;;;17.00;68.20;;;;;;10571945;28;20044;-69
2021/03/03 15:56:28;;;;;;;24.80;14.65;;;16.80;69.00;;;;;;10571005;28;20079;-69
2021/03/03 16:01:31;;;;;;;25.75;14.85;;;16.60;71.30;;;;;;10572810;28;20139;-69
2021/03/03 16:06:32;;;;;;;26.52;15.07;;;16.40;72.00;;;;;;10553684;28;20456;-69
2021/03/03 16:11:34;;;;;;;29.15;14.50;;;16.40;71.40;;;;;;10570194;28;20583;-69
2021/03/03 16:16:35;;;;;;;27.80;14.07;;;16.30;71.60;;;;;;10571011;28;20564;-69
2021/03/03 16:21:38;;;;;;;22.00;13.25;;;16.20;72.90;;;;;;10570885;28;20565;-69
2021/03/03 16:26:42;;;;;;;22.13;13.77;;;15.90;73.50;;;;;;10570090;28;20043;-69
2021/03/03 16:31:43;;;;;;;24.48;14.32;;;15.80;74.60;;;;;;10553081;28;20730;-68
2021/03/03 16:36:45;;;;;;;22.13;12.70;;;15.60;76.60;;;;;;10570475;28;20051;-69
2021/03/03 16:41:46;;;;;;;22.65;12.35;;;15.30;78.80;;;;;;10569629;28;20096;-69
2021/03/03 16:46:48;;;;;;;21.70;10.95;;;15.10;78.80;;;;;;10570806;28;20574;-69
2021/03/03 16:51:49;;;;;;;27.73;12.43;;;14.80;77.50;;;;;;10569546;28;20158;-69
2021/03/03 16:56:51;;;;;;;21.52;12.00;;;14.60;77.60;;;;;;10568559;28;20131;-69
2021/03/03 17:01:52;;;;;;;21.73;11.57;;;14.30;78.00;;;;;;10552227;28;20075;-69
2021/03/03 17:06:58;;;;;;;21.02;10.20;;;14.10;78.30;;;;;;10552618;28;20055;-68
2021/03/03 17:12:02;;;;;;;22.25;12.95;;;13.90;79.80;;;;;;10569592;28;20108;-68
2021/03/03 17:17:08;;;;;;;17.33;11.05;;;13.70;84.80;;;;;;10570450;28;20402;-69
2021/03/03 17:22:10;;;;;;;28.88;15.70;;;13.50;88.20;;;;;;10570203;28;20407;-68
2021/03/03 17:27:12;;;;;;;23.30;12.85;;;13.30;92.00;;;;;;10569225;28;20135;-69
2021/03/03 17:32:13;;;;;;;32.00;12.02;;;13.00;94.10;;;;;;10569455;28;20521;-68
2021/03/03 17:37:16;;;;;;;24.67;13.35;;;12.80;95.80;;;;;;10570222;28;20051;-67
2021/03/03 17:42:17;;;;;;;33.40;17.83;;;12.70;97.50;;;;;;10566692;28;20492;-76
2021/03/03 17:47:19;;;;;;;23.63;12.95;;;12.60;98.40;;;;;;10530631;28;20044;-75
2021/03/03 17:52:22;;;;;;;22.02;12.20;;;12.50;98.90;;;;;;10566846;28;20741;-75
2021/03/03 17:57:24;;;;;;;25.15;14.27;;;12.20;99.90;;;;;;10569259;28;20127;-77
2021/03/03 18:02:25;;;;;;;23.92;12.85;;;12.10;99.90;;;;;;10573550;28;20115;-76
2021/03/03 18:07:27;;;;;;;22.42;11.55;;;11.90;99.90;;;;;;10576469;28;20091;-76
2021/03/03 18:12:29;;;;;;;23.30;10.43;;;11.70;99.90;;;;;;10576143;28;20114;-76
2021/03/03 18:17:31;;;;;;;21.58;10.18;;;11.60;99.90;;;;;;10576171;28;20107;-77
2021/03/03 18:22:33;;;;;;;21.77;11.55;;;11.40;99.90;;;;;;10575957;28;20064;-77
2021/03/03 18:27:38;;;;;;;20.85;9.98;;;11.20;99.90;;;;;;10575908;28;20048;-77
2021/03/03 18:32:40;;;;;;;16.02;8.50;;;11.10;99.90;;;;;;10575276;28;20481;-77
2021/03/03 18:37:44;;;;;;;20.00;9.07;;;10.90;99.90;;;;;;10576095;28;20155;-78
2021/03/03 18:42:47;;;;;;;22.58;10.20;;;10.80;99.90;;;;;;10575122;28;20119;-78
2021/03/03 18:47:50;;;;;;;18.73;8.90;;;10.70;99.90;;;;;;10575141;28;20051;-77
2021/03/03 18:52:52;;;;;;;18.38;7.97;;;10.70;99.90;;;;;;10575189;28;20118;-77
2021/03/03 18:57:54;;;;;;;19.95;8.95;;;10.70;99.90;;;;;;10574737;28;20048;-77
2021/03/03 19:02:55;;;;;;;19.05;7.93;;;10.70;99.90;;;;;;10573875;28;20071;-77
2021/03/03 19:07:57;;;;;;;13.18;8.25;;;10.60;99.90;;;;;;10578856;28;20066;-76
2021/03/03 19:12:58;;;;;;;21.92;9.02;;;10.50;99.90;;;;;;10573160;28;20143;-77
2021/03/03 19:18:00;;;;;;;19.42;8.65;;;10.40;99.90;;;;;;10571925;28;20075;-78
2021/03/03 19:23:02;;;;;;;17.67;8.52;;;10.30;99.90;;;;;;10572381;28;20505;-79
2021/03/03 19:28:04;;;;;;;17.85;7.32;;;10.20;99.90;;;;;;10572373;28;20074;-78
2021/03/03 19:33:06;;;;;;;14.85;8.23;;;10.10;99.90;;;;;;10572495;28;20044;-77
2021/03/03 19:38:09;;;;;;;18.38;8.15;;;10.10;99.90;;;;;;10571347;28;20411;-77
2021/03/03 19:43:11;;;;;;;20.63;8.60;;;10.10;99.90;;;;;;10572239;28;20144;-77
2021/03/03 19:48:14;;;;;;;20.80;8.48;;;10.00;99.90;;;;;;10571353;28;20548;-77
2021/03/03 19:53:16;;;;;;;17.80;8.27;;;9.90;99.90;;;;;;10571486;28;20051;-77
2021/03/03 19:58:19;;;;;;;20.75;8.50;;;9.90;99.90;;;;;;10571336;28;20048;-78
2021/03/03 20:03:21;;;;;;;17.67;8.75;;;9.80;99.90;;;;;;10571164;28;20084;-77
2021/03/03 20:08:23;;;;;;;23.33;8.70;;;9.80;99.90;;;;;;10571438;28;20126;-78
2021/03/03 20:13:25;;;;;;;22.70;9.63;;;9.70;99.90;;;;;;10553052;28;20047;-77
2021/03/03 20:18:27;;;;;;;18.80;9.27;;;9.70;99.90;;;;;;10570761;28;20051;-77
2021/03/03 20:23:30;;;;;;;25.25;9.27;;;9.60;99.90;;;;;;10570016;28;20132;-77
2021/03/03 20:28:31;;;;;;;25.67;14.45;;;9.40;99.90;;;;;;10570914;28;20044;-77
2021/03/03 20:33:33;;;;;;;24.35;14.48;;;9.30;99.90;;;;;;10570339;28;20048;-77
2021/03/03 20:38:36;;;;;;;18.35;9.13;;;9.30;99.90;;;;;;10551791;28;20479;-77
2021/03/03 20:43:38;;;;;;;19.17;10.02;;;9.40;99.90;;;;;;10552264;28;20109;-77
2021/03/03 20:48:39;;;;;;;21.67;9.57;;;9.30;99.90;;;;;;10569879;28;20073;-77
2021/03/03 20:53:41;;;;;;;19.42;9.98;;;9.20;99.90;;;;;;10569699;28;20051;-77
2021/03/03 20:58:43;;;;;;;19.98;10.00;;;9.20;99.90;;;;;;10569640;28;20052;-77
2021/03/03 21:03:45;;;;;;;19.33;9.52;;;9.20;99.90;;;;;;10569478;28;20047;-76
2021/03/03 21:08:48;;;;;;;27.98;13.45;;;9.30;99.90;;;;;;10569942;28;20079;-77
2021/03/03 21:13:49;;;;;;;20.63;11.70;;;9.20;99.90;;;;;;10568926;28;20108;-77
2021/03/03 21:18:51;;;;;;;18.60;10.88;;;9.10;99.90;;;;;;10551151;28;20094;-77
2021/03/03 21:23:52;;;;;;;19.00;10.63;;;9.10;99.90;;;;;;10569141;28;20526;-78
2021/03/03 21:28:53;;;;;;;27.83;10.57;;;9.10;99.90;;;;;;10534635;28;20043;-77
2021/03/03 21:33:55;;;;;;;21.70;10.85;;;9.30;99.90;;;;;;10551760;28;20079;-78
2021/03/03 21:38:56;;;;;;;26.00;11.35;;;9.30;99.90;;;;;;10577491;28;20506;-77
2021/03/03 21:43:58;;;;;;;28.08;13.75;;;9.40;99.90;;;;;;10577122;28;20135;-79
2021/03/03 21:48:59;;;;;;;22.38;12.30;;;9.40;99.90;;;;;;10575614;28;20632;-78
2021/03/03 21:54:00;;;;;;;24.63;10.02;;;9.30;99.90;;;;;;10558212;28;20139;-78
2021/03/03 21:59:02;;;;;;;23.77;10.15;;;9.30;99.90;;;;;;10558239;28;20349;-78
2021/03/03 22:04:04;;;;;;;20.50;10.50;;;9.20;99.90;;;;;;10576430;28;20038;-77
2021/03/03 22:09:05;;;;;;;19.55;10.68;;;9.20;99.90;;;;;;10575659;28;20040;-77
2021/03/03 22:14:07;;;;;;;19.52;11.82;;;9.20;99.90;;;;;;10576448;28;20488;-77
2021/03/03 22:19:08;;;;;;;22.17;11.40;;;9.20;99.90;;;;;;10576003;28;20142;-78
2021/03/03 22:24:10;;;;;;;19.38;11.05;;;9.10;99.90;;;;;;10575217;28;20086;-78
2021/03/03 22:29:11;;;;;;;18.83;10.85;;;8.90;99.90;;;;;;10575266;28;20130;-77
2021/03/03 22:34:14;;;;;;;22.42;12.25;;;9.00;99.90;;;;;;10575681;28;20150;-78
2021/03/03 22:39:17;;;;;;;20.75;11.90;;;9.00;99.90;;;;;;10573608;28;20155;-77
2021/03/03 22:44:18;;;;;;;19.73;11.13;;;9.10;99.90;;;;;;10556623;28;20126;-77
2021/03/03 22:49:19;;;;;;;18.15;11.15;;;9.20;99.90;;;;;;10555003;28;20131;-78
2021/03/03 22:54:21;;;;;;;20.90;11.07;;;9.10;99.90;;;;;;10556058;28;20928;-78
2021/03/03 22:59:22;;;;;;;25.50;12.02;;;9.20;99.90;;;;;;10573756;28;20074;-78
2021/03/03 23:04:24;;;;;;;19.35;11.07;;;9.10;99.90;;;;;;10574176;28;20468;-77
2021/03/03 23:09:25;;;;;;;24.02;11.73;;;9.10;99.90;;;;;;10573351;28;20130;-77
2021/03/03 23:14:26;;;;;;;18.83;11.40;;;8.90;99.90;;;;;;10572910;28;20075;-77
2021/03/03 23:19:31;;;;;;;18.42;11.18;;;8.70;99.90;;;;;;10573442;28;20138;-76
2021/03/03 23:24:34;;;;;;;30.27;16.15;;;8.70;99.90;;;;;;10572262;28;20122;-76
2021/03/03 23:29:39;;;;;;;21.17;12.57;;;8.70;99.90;;;;;;10572594;28;20039;-76
2021/03/03 23:34:41;;;;;;;19.65;11.50;;;8.60;99.90;;;;;;10572386;28;20051;-77
2021/03/03 23:39:42;;;;;;;24.98;11.90;;;8.50;99.90;;;;;;10572365;28;20126;-77
2021/03/03 23:44:44;;;;;;;24.75;12.95;;;8.50;99.90;;;;;;10572061;28;20535;-76
2021/03/03 23:49:55;;;;;;;22.58;12.10;;;8.40;99.90;;;;;;10555216;28;20137;-77
2021/03/03 23:54:57;;;;;;;22.00;11.63;;;8.40;99.90;;;;;;10570550;28;20115;-77
2021/03/03 23:59:58;;;;;;;23.58;12.70;;;8.40;99.90;;;;;;10570810;28;20126;-77
